Time;durP1;ratioP1;P1;durP2;ratioP2;P2;SDS_P1;SDS_P2;PMS_P1;PMS_P2;Temp;Humidity;BMP_temperature;BMP_pressure;BME280_temperature;BME280_humidity;BME280_pressure;Samples;Min_cycle;Max_cycle;Signal;HPM_P1;HPM_P2
2023/07/29 00:01:29;;;;;;;3.35;3.05;;;;;;;;;;6261304;28;20454;-79
2023/07/29 00:04:33;;;;;;;2.50;2.50;;;;;;;;;;6263179;28;20287;-79
2023/07/29 00:07:38;;;;;;;5.97;2.88;;;;;;;;;;6262688;28;20299;-78
2023/07/29 00:10:42;;;;;;;1.80;1.80;;;;;;;;;;6262886;28;20240;-79
2023/07/29 00:13:47;;;;;;;2.15;2.03;;;;;;;;;;6262397;28;20525;-79
2023/07/29 00:16:51;;;;;;;1.70;1.70;;;;;;;;;;6262200;28;20240;-79
2023/07/29 00:19:55;;;;;;;1.90;1.75;;;;;;;;;;6262474;28;20244;-80
2023/07/29 00:23:01;;;;;;;1.60;1.60;;;;;;;;;;6278083;28;20271;-79
2023/07/29 00:26:05;;;;;;;2.17;1.77;;;;;;;;;;6262634;28;20244;-79
2023/07/29 00:29:09;;;;;;;1.67;1.67;;;;;;;;;;6262023;28;20264;-79
2023/07/29 00:32:12;;;;;;;1.98;1.60;;;;;;;;;;6262151;28;20236;-79
2023/07/29 00:35:16;;;;;;;1.55;1.55;;;;;;;;;;6262109;28;20715;-79
2023/07/29 00:38:21;;;;;;;3.03;1.60;;;;;;;;;;6277306;28;20267;-79
2023/07/29 00:41:26;;;;;;;1.60;1.60;;;;;;;;;;6262366;28;20244;-79
2023/07/29 00:44:31;;;;;;;1.70;1.70;;;;;;;;;;6260638;28;20264;-79
2023/07/29 00:47:37;;;;;;;1.90;1.40;;;;;;;;;;6261956;28;20244;-79
2023/07/29 00:50:41;;;;;;;2.78;1.60;;;;;;;;;;6260277;28;20509;-79
2023/07/29 00:53:46;;;;;;;2.03;1.90;;;;;;;;;;6259926;28;20267;-79
2023/07/29 00:56:50;;;;;;;1.63;1.60;;;;;;;;;;6260074;28;20263;-79
2023/07/29 00:59:55;;;;;;;1.90;1.80;;;;;;;;;;6261277;28;20245;-79
2023/07/29 01:06:51;;;;;;;1.63;1.63;;;;;;;;;;6225901;23;20304;-80
2023/07/29 01:10:02;;;;;;;1.70;1.60;;;;;;;;;;6076625;29;20269;-80
2023/07/29 01:13:09;;;;;;;1.70;1.70;;;;;;;;;;6092322;29;20276;-80
2023/07/29 01:16:18;;;;;;;3.60;1.70;;;;;;;;;;6073667;29;20341;-81
2023/07/29 01:19:35;;;;;;;1.63;1.45;;;;;;;;;;6070270;29;20246;-80
2023/07/29 01:22:40;;;;;;;2.28;1.70;;;;;;;;;;6072552;29;20269;-80
2023/07/29 01:25:45;;;;;;;2.95;1.80;;;;;;;;;;6091965;29;20536;-80
2023/07/29 01:28:49;;;;;;;1.70;1.70;;;;;;;;;;6091987;29;20292;-80
2023/07/29 01:31:56;;;;;;;1.80;1.80;;;;;;;;;;6093444;29;20265;-81
2023/07/29 01:35:04;;;;;;;2.70;1.60;;;;;;;;;;6091742;29;20276;-79
2023/07/29 01:38:11;;;;;;;1.58;1.48;;;;;;;;;;6091863;29;20284;-80
2023/07/29 01:41:18;;;;;;;1.90;1.40;;;;;;;;;;6077731;29;20245;-80
2023/07/29 01:44:22;;;;;;;1.77;1.77;;;;;;;;;;6068696;29;20288;-80
2023/07/29 01:47:26;;;;;;;2.03;1.88;;;;;;;;;;6068885;29;20277;-80
2023/07/29 01:50:31;;;;;;;1.80;1.70;;;;;;;;;;6068603;29;20596;-80
2023/07/29 01:53:35;;;;;;;1.70;1.60;;;;;;;;;;6073549;29;20245;-80
2023/07/29 01:56:40;;;;;;;1.70;1.70;;;;;;;;;;6069698;29;20238;-80
2023/07/29 01:59:44;;;;;;;2.40;1.60;;;;;;;;;;6068660;29;20280;-79
2023/07/29 02:02:48;;;;;;;1.77;1.70;;;;;;;;;;6068452;29;20293;-80
2023/07/29 02:05:52;;;;;;;1.75;1.75;;;;;;;;;;6069107;29;20317;-80
2023/07/29 02:08:56;;;;;;;2.00;1.90;;;;;;;;;;6069941;29;20349;-80
2023/07/29 02:12:02;;;;;;;1.85;1.77;;;;;;;;;;6070604;29;20279;-80
2023/07/29 02:15:13;;;;;;;3.35;1.63;;;;;;;;;;6095737;29;20253;-79
2023/07/29 02:18:17;;;;;;;1.73;1.73;;;;;;;;;;6096139;29;20276;-80
2023/07/29 02:21:21;;;;;;;3.75;2.00;;;;;;;;;;6096061;29;20280;-80
2023/07/29 02:24:25;;;;;;;2.00;1.67;;;;;;;;;;6097369;29;20271;-80
2023/07/29 02:27:30;;;;;;;1.77;1.77;;;;;;;;;;6109461;29;20193;-81
2023/07/29 02:30:34;;;;;;;2.08;1.98;;;;;;;;;;6096457;29;20292;-79
2023/07/29 02:33:38;;;;;;;2.05;1.95;;;;;;;;;;6097190;29;20246;-79
2023/07/29 02:36:42;;;;;;;1.52;1.52;;;;;;;;;;6096701;29;20249;-80
2023/07/29 02:39:46;;;;;;;1.58;1.58;;;;;;;;;;6095688;29;20284;-79
2023/07/29 02:42:51;;;;;;;1.80;1.70;;;;;;;;;;6096839;29;20245;-79
2023/07/29 02:45:55;;;;;;;1.63;1.45;;;;;;;;;;6096785;29;20249;-80
2023/07/29 02:48:59;;;;;;;1.60;1.60;;;;;;;;;;6096787;29;20249;-79
2023/07/29 02:52:03;;;;;;;1.95;1.65;;;;;;;;;;6096821;29;20249;-79
2023/07/29 02:55:07;;;;;;;1.70;1.70;;;;;;;;;;6096764;29;20241;-79
2023/07/29 02:58:12;;;;;;;3.03;1.85;;;;;;;;;;6095181;29;20453;-79
2023/07/29 03:01:16;;;;;;;1.48;1.48;;;;;;;;;;6096206;29;20257;-80
2023/07/29 03:04:20;;;;;;;1.60;1.60;;;;;;;;;;6096278;29;20248;-80
2023/07/29 03:07:24;;;;;;;1.50;1.50;;;;;;;;;;6096298;29;20257;-80
2023/07/29 03:10:28;;;;;;;1.70;1.48;;;;;;;;;;6096377;29;20272;-80
2023/07/29 03:13:33;;;;;;;2.47;1.63;;;;;;;;;;6094145;29;20276;-80
2023/07/29 03:16:37;;;;;;;1.52;1.52;;;;;;;;;;6071843;29;20281;-80
2023/07/29 03:19:41;;;;;;;1.67;1.67;;;;;;;;;;6072521;29;20249;-80
2023/07/29 03:22:45;;;;;;;1.52;1.42;;;;;;;;;;6071663;29;20585;-79
2023/07/29 03:25:51;;;;;;;1.45;1.45;;;;;;;;;;6073422;29;20273;-79
2023/07/29 03:28:56;;;;;;;1.83;1.73;;;;;;;;;;6072653;29;20245;-79
2023/07/29 03:32:00;;;;;;;2.47;1.50;;;;;;;;;;6072153;29;20265;-80
2023/07/29 03:35:04;;;;;;;1.70;1.70;;;;;;;;;;6072064;29;20249;-79
2023/07/29 03:38:08;;;;;;;1.80;1.70;;;;;;;;;;6071572;29;20277;-79
2023/07/29 03:41:12;;;;;;;1.60;1.60;;;;;;;;;;6072185;29;20294;-80
2023/07/29 03:44:18;;;;;;;2.38;1.50;;;;;;;;;;6071513;29;20269;-80
2023/07/29 03:47:22;;;;;;;1.67;1.58;;;;;;;;;;6071088;29;20273;-80
2023/07/29 03:50:26;;;;;;;1.45;1.45;;;;;;;;;;6073312;29;20281;-80
2023/07/29 03:53:30;;;;;;;1.80;1.45;;;;;;;;;;6079468;29;20273;-80
2023/07/29 03:56:35;;;;;;;1.50;1.50;;;;;;;;;;6070849;29;20553;-79
2023/07/29 03:59:42;;;;;;;1.58;1.58;;;;;;;;;;6070830;29;20297;-79
2023/07/29 04:02:46;;;;;;;1.55;1.55;;;;;;;;;;6070679;29;20453;-79
2023/07/29 04:05:50;;;;;;;1.20;1.20;;;;;;;;;;6062808;29;20484;-80
2023/07/29 04:08:54;;;;;;;3.15;1.25;;;;;;;;;;6063371;29;20408;-79
2023/07/29 04:11:58;;;;;;;1.73;1.48;;;;;;;;;;6062987;29;20297;-79
2023/07/29 04:15:04;;;;;;;1.60;1.60;;;;;;;;;;6075494;29;20273;-79
2023/07/29 04:18:08;;;;;;;1.50;1.50;;;;;;;;;;6085921;29;20297;-79
2023/07/29 04:21:12;;;;;;;1.50;1.50;;;;;;;;;;6072812;29;20509;-79
2023/07/29 04:24:16;;;;;;;1.60;1.60;;;;;;;;;;6071900;29;20258;-80
2023/07/29 04:27:20;;;;;;;1.70;1.60;;;;;;;;;;6085650;29;20461;-79
2023/07/29 04:30:25;;;;;;;2.05;1.50;;;;;;;;;;6071218;29;20269;-80
2023/07/29 04:33:30;;;;;;;1.75;1.65;;;;;;;;;;6070081;29;20451;-80
2023/07/29 04:36:37;;;;;;;2.05;1.52;;;;;;;;;;6069362;29;20285;-79
2023/07/29 04:39:41;;;;;;;3.33;1.55;;;;;;;;;;6085427;29;20274;-79
2023/07/29 04:42:45;;;;;;;1.60;1.60;;;;;;;;;;6071095;29;20253;-79
2023/07/29 04:45:50;;;;;;;2.13;1.92;;;;;;;;;;6069388;29;20289;-79
2023/07/29 04:48:54;;;;;;;1.70;1.70;;;;;;;;;;6071038;29;20250;-80
2023/07/29 04:51:58;;;;;;;2.15;1.92;;;;;;;;;;6070839;29;20265;-80
2023/07/29 04:55:02;;;;;;;1.90;1.90;;;;;;;;;;6085205;29;20281;-80
2023/07/29 04:58:06;;;;;;;1.75;1.70;;;;;;;;;;6085182;29;20273;-79
2023/07/29 05:01:11;;;;;;;2.60;1.85;;;;;;;;;;6069617;29;20280;-79
2023/07/29 05:04:15;;;;;;;2.30;2.00;;;;;;;;;;6071144;29;20521;-80
2023/07/29 05:07:19;;;;;;;3.35;1.75;;;;;;;;;;6093800;29;20264;-79
2023/07/29 05:10:23;;;;;;;1.83;1.73;;;;;;;;;;6076677;29;20280;-80
2023/07/29 05:13:27;;;;;;;4.38;2.00;;;;;;;;;;6091585;29;20546;-80
2023/07/29 05:16:32;;;;;;;2.08;1.98;;;;;;;;;;6077380;29;20268;-79
2023/07/29 05:19:38;;;;;;;1.98;1.70;;;;;;;;;;6074019;29;20250;-79
2023/07/29 05:22:42;;;;;;;2.25;1.92;;;;;;;;;;6069422;29;20278;-80
2023/07/29 05:25:46;;;;;;;3.15;1.98;;;;;;;;;;6068959;29;20273;-80
2023/07/29 05:28:50;;;;;;;1.88;1.77;;;;;;;;;;6069983;29;20249;-80
2023/07/29 05:31:56;;;;;;;3.90;2.05;;;;;;;;;;6069160;29;20309;-79
2023/07/29 05:35:00;;;;;;;1.75;1.75;;;;;;;;;;6069078;29;20273;-79
2023/07/29 05:38:06;;;;;;;1.60;1.60;;;;;;;;;;6069807;29;20253;-80
2023/07/29 05:41:10;;;;;;;3.63;1.73;;;;;;;;;;6069946;29;20245;-78
2023/07/29 05:44:13;;;;;;;1.65;1.58;;;;;;;;;;6068886;29;20281;-79
2023/07/29 05:47:19;;;;;;;1.52;1.52;;;;;;;;;;6071787;29;20245;-79
2023/07/29 05:50:23;;;;;;;1.63;1.63;;;;;;;;;;6076504;29;20277;-80
2023/07/29 05:53:27;;;;;;;1.88;1.88;;;;;;;;;;6079425;29;20296;-79
2023/07/29 05:56:31;;;;;;;2.05;2.05;;;;;;;;;;6077481;29;20325;-80
2023/07/29 05:59:35;;;;;;;3.08;1.70;;;;;;;;;;6075836;29;20269;-80
2023/07/29 06:02:41;;;;;;;1.75;1.75;;;;;;;;;;6076094;29;20273;-80
2023/07/29 06:05:49;;;;;;;1.50;1.50;;;;;;;;;;6075733;29;20312;-80
2023/07/29 06:08:58;;;;;;;1.60;1.60;;;;;;;;;;6077499;29;20272;-80
2023/07/29 06:12:02;;;;;;;1.95;1.95;;;;;;;;;;6076171;29;20284;-80
2023/07/29 06:15:06;;;;;;;1.88;1.48;;;;;;;;;;6090516;29;20249;-80
2023/07/29 06:18:12;;;;;;;1.65;1.65;;;;;;;;;;6100611;29;20317;-80
2023/07/29 06:21:17;;;;;;;1.80;1.70;;;;;;;;;;6100639;29;20253;-80
2023/07/29 06:24:21;;;;;;;1.73;1.60;;;;;;;;;;6100862;29;20320;-80
2023/07/29 06:27:26;;;;;;;1.70;1.60;;;;;;;;;;6100436;29;20316;-80
2023/07/29 06:30:31;;;;;;;1.75;1.70;;;;;;;;;;6100200;29;20256;-81
2023/07/29 06:33:36;;;;;;;1.38;1.38;;;;;;;;;;6100297;29;20273;-80
2023/07/29 06:36:40;;;;;;;1.48;1.48;;;;;;;;;;6100381;29;20241;-80
2023/07/29 06:39:44;;;;;;;2.92;1.70;;;;;;;;;;6100940;29;20254;-80
2023/07/29 06:42:48;;;;;;;2.58;1.55;;;;;;;;;;6114532;29;20201;-81
2023/07/29 06:45:52;;;;;;;1.75;1.73;;;;;;;;;;6100234;29;20245;-81
2023/07/29 06:48:57;;;;;;;1.60;1.60;;;;;;;;;;6102520;29;20272;-80
2023/07/29 06:52:02;;;;;;;1.70;1.60;;;;;;;;;;6100975;29;20264;-83
2023/07/29 06:55:06;;;;;;;2.00;1.90;;;;;;;;;;6100312;29;20236;-79
2023/07/29 06:58:10;;;;;;;1.48;1.48;;;;;;;;;;6100140;29;20245;-82
2023/07/29 07:01:14;;;;;;;3.22;1.58;;;;;;;;;;6095564;29;20245;-81
2023/07/29 07:04:19;;;;;;;3.72;1.80;;;;;;;;;;6095823;29;20553;-82
2023/07/29 07:07:23;;;;;;;2.60;1.60;;;;;;;;;;6095990;29;20250;-82
2023/07/29 07:10:27;;;;;;;2.00;1.65;;;;;;;;;;6079552;29;20282;-82
2023/07/29 07:13:31;;;;;;;3.50;1.50;;;;;;;;;;6095202;29;20264;-82
2023/07/29 07:16:36;;;;;;;1.58;1.50;;;;;;;;;;6072927;29;20313;-82
2023/07/29 07:19:42;;;;;;;1.90;1.52;;;;;;;;;;6072791;29;20246;-81
2023/07/29 07:22:46;;;;;;;1.50;1.50;;;;;;;;;;6072668;29;20445;-81
2023/07/29 07:25:50;;;;;;;1.30;1.30;;;;;;;;;;6072330;29;20241;-81
2023/07/29 07:28:53;;;;;;;1.70;1.60;;;;;;;;;;6072496;29;20258;-82
2023/07/29 07:31:58;;;;;;;1.60;1.60;;;;;;;;;;6072220;29;20533;-82
2023/07/29 07:35:04;;;;;;;1.40;1.40;;;;;;;;;;6072192;29;20263;-81
2023/07/29 07:38:09;;;;;;;1.55;1.45;;;;;;;;;;6072042;29;20432;-81
2023/07/29 07:41:13;;;;;;;1.63;1.40;;;;;;;;;;6071619;29;20277;-81
2023/07/29 07:44:19;;;;;;;1.40;1.40;;;;;;;;;;6072287;29;20249;-80
2023/07/29 07:47:23;;;;;;;1.52;1.52;;;;;;;;;;6071999;29;20446;-80
2023/07/29 07:50:30;;;;;;;1.52;1.52;;;;;;;;;;6072027;29;20241;-81
2023/07/29 07:53:34;;;;;;;1.30;1.30;;;;;;;;;;6071571;29;20266;-81
2023/07/29 07:56:37;;;;;;;1.52;1.52;;;;;;;;;;6071484;29;20245;-81
2023/07/29 07:59:42;;;;;;;1.48;1.40;;;;;;;;;;6071038;29;20273;-80
2023/07/29 08:02:46;;;;;;;1.95;1.80;;;;;;;;;;6071520;29;20362;-81
2023/07/29 08:05:51;;;;;;;2.50;1.60;;;;;;;;;;6075994;29;20289;-79
2023/07/29 08:08:55;;;;;;;2.38;1.55;;;;;;;;;;6079848;29;20423;-80
2023/07/29 08:11:58;;;;;;;2.03;1.85;;;;;;;;;;6071554;29;20250;-80
2023/07/29 08:15:02;;;;;;;1.60;1.60;;;;;;;;;;6083700;29;20479;-79
2023/07/29 08:18:06;;;;;;;1.40;1.40;;;;;;;;;;6094406;29;20252;-81
2023/07/29 08:21:11;;;;;;;1.40;1.40;;;;;;;;;;6094454;29;20237;-80
2023/07/29 08:24:15;;;;;;;1.63;1.60;;;;;;;;;;6094351;29;20249;-81
2023/07/29 08:27:19;;;;;;;1.50;1.50;;;;;;;;;;6094162;29;20249;-81
2023/07/29 08:30:23;;;;;;;2.88;1.55;;;;;;;;;;6094298;29;20245;-81
2023/07/29 08:33:28;;;;;;;1.60;1.60;;;;;;;;;;6094309;29;20265;-81
2023/07/29 08:36:33;;;;;;;1.67;1.58;;;;;;;;;;6092776;29;20300;-81
2023/07/29 08:39:37;;;;;;;2.67;1.60;;;;;;;;;;6094041;29;20229;-81
2023/07/29 08:42:43;;;;;;;1.40;1.40;;;;;;;;;;6093713;29;20248;-80
2023/07/29 08:45:47;;;;;;;1.35;1.27;;;;;;;;;;6093860;29;20240;-81
2023/07/29 08:48:51;;;;;;;4.43;1.30;;;;;;;;;;6093753;29;20245;-81
2023/07/29 08:51:57;;;;;;;1.40;1.40;;;;;;;;;;6093848;29;20237;-81
2023/07/29 08:55:00;;;;;;;2.17;1.65;;;;;;;;;;6093342;29;20273;-80
2023/07/29 08:58:04;;;;;;;1.20;1.20;;;;;;;;;;6093552;29;20284;-80
2023/07/29 09:01:08;;;;;;;1.40;1.40;;;;;;;;;;6093640;29;20248;-81
2023/07/29 09:04:13;;;;;;;2.63;1.40;;;;;;;;;;6093089;29;20431;-80
2023/07/29 09:07:20;;;;;;;1.65;1.58;;;;;;;;;;6093351;29;20190;-80
2023/07/29 09:10:26;;;;;;;3.92;1.50;;;;;;;;;;6093176;29;20529;-81
2023/07/29 09:13:30;;;;;;;1.17;1.17;;;;;;;;;;6092102;29;20272;-80
2023/07/29 09:16:34;;;;;;;4.13;1.58;;;;;;;;;;6073116;29;20279;-80
2023/07/29 09:19:39;;;;;;;1.50;1.50;;;;;;;;;;6071088;29;20242;-80
2023/07/29 09:22:45;;;;;;;1.42;1.40;;;;;;;;;;6069489;29;20245;-80
2023/07/29 09:25:48;;;;;;;1.50;1.50;;;;;;;;;;6070237;29;20250;-79
2023/07/29 09:28:53;;;;;;;1.38;1.38;;;;;;;;;;6069769;29;20245;-80
2023/07/29 09:32:18;;;;;;;1.63;1.50;;;;;;;;;;6078560;29;20249;-81
2023/07/29 09:35:22;;;;;;;1.30;1.30;;;;;;;;;;6074665;29;20270;-80
2023/07/29 09:38:31;;;;;;;1.35;1.35;;;;;;;;;;6069911;29;20471;-80
2023/07/29 09:41:35;;;;;;;1.65;1.48;;;;;;;;;;6068341;29;20456;-80
2023/07/29 09:44:39;;;;;;;2.10;1.77;;;;;;;;;;6069947;29;20256;-82
2023/07/29 09:47:47;;;;;;;1.30;1.30;;;;;;;;;;6070963;29;20273;-81
2023/07/29 09:50:51;;;;;;;1.55;1.45;;;;;;;;;;6070834;29;20251;-82
2023/07/29 09:53:58;;;;;;;1.52;1.52;;;;;;;;;;6069804;29;20269;-82
2023/07/29 09:57:02;;;;;;;1.20;1.20;;;;;;;;;;6069760;29;20526;-81
2023/07/29 10:00:10;;;;;;;1.38;1.38;;;;;;;;;;6069767;29;20265;-82
2023/07/29 10:03:15;;;;;;;1.30;1.30;;;;;;;;;;6069496;29;20515;-82
2023/07/29 10:06:19;;;;;;;1.20;1.20;;;;;;;;;;6068921;29;20297;-80
2023/07/29 10:09:25;;;;;;;1.30;1.30;;;;;;;;;;6069831;29;20250;-82
2023/07/29 10:12:31;;;;;;;1.40;1.40;;;;;;;;;;6069386;29;20242;-82
2023/07/29 10:15:35;;;;;;;1.50;1.50;;;;;;;;;;6086023;29;20268;-81
2023/07/29 10:18:39;;;;;;;2.35;1.23;;;;;;;;;;6092083;29;20245;-81
2023/07/29 10:21:45;;;;;;;1.40;1.40;;;;;;;;;;6091229;29;20280;-81
2023/07/29 10:24:52;;;;;;;1.65;1.27;;;;;;;;;;6092497;29;20249;-83
2023/07/29 10:27:57;;;;;;;1.20;1.20;;;;;;;;;;6095766;29;20253;-80
2023/07/29 10:31:01;;;;;;;2.90;1.70;;;;;;;;;;6091884;29;20292;-81
2023/07/29 10:34:06;;;;;;;1.60;1.50;;;;;;;;;;6092705;29;20273;-81
2023/07/29 10:37:10;;;;;;;1.58;1.40;;;;;;;;;;6097543;29;20286;-80
2023/07/29 10:40:16;;;;;;;3.00;1.63;;;;;;;;;;6097339;29;20253;-80
2023/07/29 10:43:24;;;;;;;1.60;1.60;;;;;;;;;;6096674;29;20249;-81
2023/07/29 10:46:28;;;;;;;1.60;1.50;;;;;;;;;;6096635;29;20268;-82
2023/07/29 10:49:36;;;;;;;1.30;1.30;;;;;;;;;;6095777;29;20272;-81
2023/07/29 10:52:43;;;;;;;1.52;1.40;;;;;;;;;;6096702;29;20244;-82
2023/07/29 10:55:48;;;;;;;1.70;1.50;;;;;;;;;;6100955;29;20572;-79
2023/07/29 10:58:52;;;;;;;1.10;1.10;;;;;;;;;;6105778;29;20424;-81
2023/07/29 11:01:58;;;;;;;1.20;1.20;;;;;;;;;;6096617;29;20249;-81
2023/07/29 11:05:06;;;;;;;1.38;1.30;;;;;;;;;;6095727;29;20300;-80
2023/07/29 11:08:18;;;;;;;1.25;1.10;;;;;;;;;;6095817;29;20411;-81
2023/07/29 11:11:23;;;;;;;1.40;1.40;;;;;;;;;;6095912;29;20435;-81
2023/07/29 11:14:27;;;;;;;1.48;1.48;;;;;;;;;;6087545;29;20262;-81
2023/07/29 11:17:32;;;;;;;1.65;1.65;;;;;;;;;;6072534;29;20249;-81
2023/07/29 11:20:36;;;;;;;1.30;1.30;;;;;;;;;;6072933;29;20242;-82
2023/07/29 11:23:40;;;;;;;1.70;1.40;;;;;;;;;;6072776;29;20249;-82
2023/07/29 11:26:48;;;;;;;1.20;1.20;;;;;;;;;;6073021;29;20512;-82
2023/07/29 11:29:58;;;;;;;1.20;1.20;;;;;;;;;;6072919;29;20254;-82
2023/07/29 11:33:02;;;;;;;1.45;1.40;;;;;;;;;;6072748;29;20245;-81
2023/07/29 11:36:06;;;;;;;1.27;1.27;;;;;;;;;;6072979;29;20297;-81
2023/07/29 11:39:11;;;;;;;1.13;1.13;;;;;;;;;;6071364;29;20269;-81
2023/07/29 11:42:16;;;;;;;2.33;1.30;;;;;;;;;;6072716;29;20246;-80
2023/07/29 11:45:21;;;;;;;1.45;1.38;;;;;;;;;;6074690;29;20249;-81
2023/07/29 11:48:33;;;;;;;1.30;1.30;;;;;;;;;;6072446;29;20250;-81
2023/07/29 11:51:37;;;;;;;1.40;1.30;;;;;;;;;;6071743;29;20249;-81
2023/07/29 11:54:41;;;;;;;1.60;1.50;;;;;;;;;;6072203;29;20272;-81
2023/07/29 11:57:52;;;;;;;1.58;1.55;;;;;;;;;;6070688;29;20277;-80
2023/07/29 12:00:56;;;;;;;1.40;1.40;;;;;;;;;;6072158;29;20553;-81
2023/07/29 12:04:00;;;;;;;2.78;1.40;;;;;;;;;;6071920;29;20241;-81
2023/07/29 12:07:04;;;;;;;1.10;1.10;;;;;;;;;;6062481;29;20329;-81
2023/07/29 12:10:09;;;;;;;1.33;1.33;;;;;;;;;;6048370;29;20242;-80
2023/07/29 12:13:14;;;;;;;1.83;1.63;;;;;;;;;;6063404;29;20463;-80
2023/07/29 12:16:18;;;;;;;1.48;1.48;;;;;;;;;;6070756;29;20584;-80
2023/07/29 12:19:22;;;;;;;1.50;1.50;;;;;;;;;;6072017;29;20271;-80
2023/07/29 12:22:26;;;;;;;1.75;1.30;;;;;;;;;;6084792;29;20202;-80
2023/07/29 12:25:30;;;;;;;1.30;1.30;;;;;;;;;;6071390;29;20250;-80
2023/07/29 12:28:35;;;;;;;1.45;1.45;;;;;;;;;;6071123;29;20242;-81
2023/07/29 12:31:40;;;;;;;1.92;1.60;;;;;;;;;;6071112;29;20250;-82
2023/07/29 12:34:43;;;;;;;1.42;1.42;;;;;;;;;;6071494;29;20242;-81
2023/07/29 12:37:47;;;;;;;2.28;1.38;;;;;;;;;;6070995;29;20262;-81
2023/07/29 12:40:51;;;;;;;1.30;1.30;;;;;;;;;;6070962;29;20245;-81
2023/07/29 12:43:56;;;;;;;1.23;1.23;;;;;;;;;;6071235;29;20245;-81
2023/07/29 12:47:02;;;;;;;1.20;1.20;;;;;;;;;;6070691;29;20249;-81
2023/07/29 12:50:07;;;;;;;1.30;1.30;;;;;;;;;;6072782;29;20325;-81
2023/07/29 12:53:11;;;;;;;1.33;1.33;;;;;;;;;;6070975;29;20241;-81
2023/07/29 12:56:15;;;;;;;1.13;1.13;;;;;;;;;;6070730;29;20261;-81
2023/07/29 12:59:20;;;;;;;1.30;1.30;;;;;;;;;;6069787;29;20245;-81
2023/07/29 13:02:24;;;;;;;1.25;1.25;;;;;;;;;;6070494;29;20249;-81
2023/07/29 13:05:28;;;;;;;2.10;1.38;;;;;;;;;;6080518;29;20300;-81
2023/07/29 13:08:32;;;;;;;1.23;1.23;;;;;;;;;;6093527;29;20253;-81
2023/07/29 13:11:35;;;;;;;1.50;1.40;;;;;;;;;;6094434;29;20561;-82
2023/07/29 13:14:41;;;;;;;1.30;1.30;;;;;;;;;;6086778;29;20246;-81
2023/07/29 13:17:45;;;;;;;1.40;1.40;;;;;;;;;;6070659;29;20270;-81
2023/07/29 13:20:48;;;;;;;1.23;1.20;;;;;;;;;;6070604;29;20253;-81
2023/07/29 13:23:52;;;;;;;1.20;1.20;;;;;;;;;;6070333;29;20485;-81
2023/07/29 13:26:56;;;;;;;3.30;1.30;;;;;;;;;;6069893;29;20269;-81
2023/07/29 13:30:02;;;;;;;1.27;1.15;;;;;;;;;;6069697;29;20514;-81
2023/07/29 13:33:05;;;;;;;1.05;1.05;;;;;;;;;;6069857;29;20274;-81
2023/07/29 13:36:10;;;;;;;1.48;1.48;;;;;;;;;;6069884;29;20261;-82
2023/07/29 13:39:13;;;;;;;1.45;1.45;;;;;;;;;;6069760;29;20253;-81
2023/07/29 13:42:17;;;;;;;1.38;1.38;;;;;;;;;;6070174;29;20254;-81
2023/07/29 13:45:23;;;;;;;1.20;1.20;;;;;;;;;;6081636;29;20246;-79
2023/07/29 13:48:27;;;;;;;1.40;1.40;;;;;;;;;;6070984;29;20246;-82
2023/07/29 13:51:31;;;;;;;1.30;1.20;;;;;;;;;;6069908;29;20246;-82
2023/07/29 13:54:35;;;;;;;1.25;1.25;;;;;;;;;;6069962;29;20275;-82
2023/07/29 13:57:39;;;;;;;2.63;1.50;;;;;;;;;;6069500;29;20273;-81
2023/07/29 14:00:45;;;;;;;1.55;1.55;;;;;;;;;;6069385;29;20254;-81
2023/07/29 14:03:49;;;;;;;3.22;1.20;;;;;;;;;;6069752;29;20249;-82
2023/07/29 14:06:52;;;;;;;2.90;1.40;;;;;;;;;;6061089;29;20313;-80
2023/07/29 14:10:02;;;;;;;3.15;1.40;;;;;;;;;;6052083;29;20425;-82
2023/07/29 14:13:06;;;;;;;2.13;1.40;;;;;;;;;;6051946;29;20242;-81
2023/07/29 14:16:11;;;;;;;1.60;1.50;;;;;;;;;;6072264;29;20289;-81
2023/07/29 14:19:15;;;;;;;1.50;1.50;;;;;;;;;;6074111;29;20431;-82
2023/07/29 14:22:19;;;;;;;1.60;1.60;;;;;;;;;;6074527;29;20245;-82
2023/07/29 14:25:22;;;;;;;2.05;2.05;;;;;;;;;;6073987;29;20245;-82
2023/07/29 14:28:26;;;;;;;2.30;2.30;;;;;;;;;;6074258;29;20254;-82
2023/07/29 14:31:32;;;;;;;1.60;1.60;;;;;;;;;;6073897;29;20346;-82
2023/07/29 14:34:36;;;;;;;2.00;1.67;;;;;;;;;;6074218;29;20245;-81
2023/07/29 14:37:39;;;;;;;1.70;1.60;;;;;;;;;;6073637;29;20273;-82
2023/07/29 14:40:43;;;;;;;1.85;1.67;;;;;;;;;;6073977;29;20249;-81
2023/07/29 14:43:47;;;;;;;1.83;1.70;;;;;;;;;;6073631;29;20424;-81
2023/07/29 14:46:53;;;;;;;1.55;1.55;;;;;;;;;;6073347;29;20518;-82
2023/07/29 14:49:57;;;;;;;1.90;1.40;;;;;;;;;;6073967;29;20243;-82
2023/07/29 14:53:01;;;;;;;1.60;1.60;;;;;;;;;;6073155;29;20544;-81
2023/07/29 14:56:05;;;;;;;1.52;1.52;;;;;;;;;;6073401;29;20538;-81
2023/07/29 14:59:09;;;;;;;2.35;1.48;;;;;;;;;;6087833;29;20289;-82
2023/07/29 15:02:14;;;;;;;2.90;1.63;;;;;;;;;;6073078;29;20250;-82
2023/07/29 15:05:18;;;;;;;1.40;1.40;;;;;;;;;;6081620;29;20300;-82
2023/07/29 15:08:22;;;;;;;1.63;1.63;;;;;;;;;;6106598;29;20213;-81
2023/07/29 15:11:26;;;;;;;1.83;1.80;;;;;;;;;;6097053;29;20528;-80
2023/07/29 15:14:30;;;;;;;1.75;1.65;;;;;;;;;;6089561;29;20250;-82
2023/07/29 15:17:35;;;;;;;1.45;1.45;;;;;;;;;;6072382;29;20265;-81
2023/07/29 15:20:39;;;;;;;1.85;1.73;;;;;;;;;;6072091;29;20659;-80
2023/07/29 15:23:43;;;;;;;1.73;1.63;;;;;;;;;;6071951;29;20274;-82
2023/07/29 15:26:47;;;;;;;1.60;1.60;;;;;;;;;;6072290;29;20249;-81
2023/07/29 15:29:51;;;;;;;1.60;1.60;;;;;;;;;;6072466;29;20253;-80
2023/07/29 15:32:56;;;;;;;1.85;1.85;;;;;;;;;;6071954;29;20250;-81
2023/07/29 15:36:00;;;;;;;2.70;1.80;;;;;;;;;;6072110;29;20242;-81
2023/07/29 15:39:04;;;;;;;1.98;1.88;;;;;;;;;;6072076;29;20592;-80
2023/07/29 15:42:08;;;;;;;2.50;2.50;;;;;;;;;;6071840;29;20241;-80
2023/07/29 15:45:12;;;;;;;1.73;1.73;;;;;;;;;;6072292;29;20431;-80
2023/07/29 15:48:17;;;;;;;2.65;2.55;;;;;;;;;;6071144;29;20273;-80
2023/07/29 15:51:21;;;;;;;7.25;4.93;;;;;;;;;;6076710;29;20238;-80
2023/07/29 15:54:25;;;;;;;3.83;2.00;;;;;;;;;;6071903;29;20262;-81
2023/07/29 15:57:29;;;;;;;19.42;13.55;;;;;;;;;;6072042;29;20561;-81
2023/07/29 16:00:33;;;;;;;3.17;1.77;;;;;;;;;;6072049;29;20478;-80
2023/07/29 16:03:40;;;;;;;3.15;1.80;;;;;;;;;;6072202;29;20253;-81
2023/07/29 16:06:45;;;;;;;1.92;1.83;;;;;;;;;;6071280;29;20297;-81
2023/07/29 16:09:49;;;;;;;3.15;2.20;;;;;;;;;;6071840;29;20262;-82
2023/07/29 16:12:52;;;;;;;34.60;24.05;;;;;;;;;;6071422;29;20261;-81
2023/07/29 16:15:58;;;;;;;2.30;2.20;;;;;;;;;;6091052;29;20249;-81
2023/07/29 16:19:03;;;;;;;2.10;2.05;;;;;;;;;;6094677;29;20451;-81
2023/07/29 16:22:08;;;;;;;9.23;7.57;;;;;;;;;;6094576;29;20248;-81
2023/07/29 16:25:11;;;;;;;4.30;3.90;;;;;;;;;;6094494;29;20245;-82
2023/07/29 16:28:15;;;;;;;14.45;10.13;;;;;;;;;;6094756;29;20248;-81
2023/07/29 16:31:19;;;;;;;6.72;5.13;;;;;;;;;;6108041;29;20197;-81
2023/07/29 16:34:24;;;;;;;6.88;4.82;;;;;;;;;;6095728;29;20427;-80
2023/07/29 16:37:28;;;;;;;2.47;2.35;;;;;;;;;;6095129;29;20277;-81
2023/07/29 16:40:32;;;;;;;2.15;2.15;;;;;;;;;;6094373;29;20249;-81
2023/07/29 16:43:36;;;;;;;3.03;2.65;;;;;;;;;;6094090;29;20245;-81
2023/07/29 16:46:41;;;;;;;2.20;2.03;;;;;;;;;;6094601;29;20537;-81
2023/07/29 16:49:46;;;;;;;3.78;2.65;;;;;;;;;;6097301;29;20374;-81
2023/07/29 16:52:53;;;;;;;2.63;2.45;;;;;;;;;;6094155;29;20316;-81
2023/07/29 16:55:57;;;;;;;2.13;2.13;;;;;;;;;;6094265;29;20237;-81
2023/07/29 16:59:01;;;;;;;2.40;2.30;;;;;;;;;;6093861;29;20272;-82
2023/07/29 17:02:06;;;;;;;1.80;1.70;;;;;;;;;;6094233;29;20252;-80
2023/07/29 17:05:12;;;;;;;1.95;1.85;;;;;;;;;;6093707;29;20292;-81
2023/07/29 17:08:16;;;;;;;2.00;2.00;;;;;;;;;;6094070;29;20257;-82
2023/07/29 17:11:20;;;;;;;2.08;1.90;;;;;;;;;;6093583;29;20238;-81
2023/07/29 17:14:24;;;;;;;2.10;2.10;;;;;;;;;;6085872;29;20237;-81
2023/07/29 17:17:28;;;;;;;2.20;2.10;;;;;;;;;;6070432;29;20241;-80
2023/07/29 17:20:33;;;;;;;1.90;1.90;;;;;;;;;;6069232;29;20305;-81
2023/07/29 17:23:37;;;;;;;2.20;2.13;;;;;;;;;;6070143;29;20242;-82
2023/07/29 17:26:41;;;;;;;2.10;2.00;;;;;;;;;;6070138;29;20400;-81
2023/07/29 17:29:45;;;;;;;2.85;2.20;;;;;;;;;;6070428;29;20257;-81
2023/07/29 17:32:49;;;;;;;2.58;2.47;;;;;;;;;;6070363;29;20249;-81
2023/07/29 17:35:55;;;;;;;2.47;2.30;;;;;;;;;;6070355;29;20242;-79
2023/07/29 17:38:59;;;;;;;4.95;2.20;;;;;;;;;;6070112;29;20459;-80
2023/07/29 17:42:02;;;;;;;2.53;2.00;;;;;;;;;;6070263;29;20538;-81
2023/07/29 17:45:07;;;;;;;1.70;1.70;;;;;;;;;;6069314;29;20343;-80
2023/07/29 17:48:11;;;;;;;3.50;1.90;;;;;;;;;;6068534;29;20293;-81
2023/07/29 17:51:17;;;;;;;1.90;1.90;;;;;;;;;;6068437;29;20432;-81
2023/07/29 17:54:21;;;;;;;1.98;1.90;;;;;;;;;;6077893;29;20262;-82
2023/07/29 17:57:26;;;;;;;2.00;2.00;;;;;;;;;;6072187;29;20253;-80
2023/07/29 18:00:30;;;;;;;2.22;2.10;;;;;;;;;;6069374;29;20273;-81
2023/07/29 18:03:34;;;;;;;5.78;2.55;;;;;;;;;;6069876;29;20250;-80
2023/07/29 18:06:39;;;;;;;3.17;2.17;;;;;;;;;;6069631;29;20341;-80
2023/07/29 18:09:43;;;;;;;2.08;2.00;;;;;;;;;;6069555;29;20250;-82
2023/07/29 18:12:47;;;;;;;2.30;2.13;;;;;;;;;;6069325;29;20249;-80
2023/07/29 18:15:52;;;;;;;5.07;1.90;;;;;;;;;;6088083;29;20249;-81
2023/07/29 18:18:55;;;;;;;2.40;2.30;;;;;;;;;;6092577;29;20269;-81
2023/07/29 18:22:01;;;;;;;3.90;2.38;;;;;;;;;;6091463;29;20264;-81
2023/07/29 18:25:05;;;;;;;2.22;2.08;;;;;;;;;;6092419;29;20245;-81
2023/07/29 18:28:09;;;;;;;2.42;2.30;;;;;;;;;;6092316;29;20242;-81
2023/07/29 18:31:13;;;;;;;2.00;2.00;;;;;;;;;;6091009;29;20427;-80